Time;durP1;ratioP1;P1;durP2;ratioP2;P2;SDS_P1;SDS_P2;PMS_P1;PMS_P2;Temp;Humidity;BMP_temperature;BMP_pressure;BME280_temperature;BME280_humidity;BME280_pressure;Samples;Min_cycle;Max_cycle;Signal;HPM_P1;HPM_P2
2022/07/27 00:01:43;;;;;;;4.72;2.60;;;;;;;20.25;100.00;96150.72;5043956;28;20256;-79
2022/07/27 00:04:10;;;;;;;3.83;2.95;;;;;;;20.28;100.00;96145.47;5038750;28;20214;-80
2022/07/27 00:06:37;;;;;;;4.03;2.90;;;;;;;20.20;100.00;96146.16;5039576;28;20312;-80
2022/07/27 00:09:04;;;;;;;8.80;3.08;;;;;;;20.19;100.00;96141.78;5042425;28;20199;-80
2022/07/27 00:11:32;;;;;;;3.95;2.88;;;;;;;20.23;100.00;96142.81;5056918;28;20214;-80
2022/07/27 00:14:00;;;;;;;2.88;2.67;;;;;;;20.25;100.00;96146.06;5044192;28;20212;-80
2022/07/27 00:16:27;;;;;;;4.05;3.40;;;;;;;20.22;100.00;96152.16;5042016;28;20199;-79
2022/07/27 00:18:54;;;;;;;5.55;2.95;;;;;;;20.21;100.00;96150.53;5038015;28;20202;-79
2022/07/27 00:21:21;;;;;;;3.50;2.95;;;;;;;20.18;100.00;96140.13;5035960;28;20298;-80
2022/07/27 00:23:48;;;;;;;5.10;2.90;;;;;;;20.22;100.00;96149.41;5038991;28;20292;-80
2022/07/27 00:26:15;;;;;;;5.72;2.75;;;;;;;20.17;100.00;96138.50;5055209;28;20199;-80
2022/07/27 00:28:42;;;;;;;4.32;2.95;;;;;;;20.19;100.00;96147.25;5042447;28;20287;-80
2022/07/27 00:31:10;;;;;;;4.38;3.00;;;;;;;20.12;100.00;96130.38;5031898;28;20214;-79
2022/07/27 00:33:37;;;;;;;3.95;2.83;;;;;;;20.16;100.00;96139.63;5054252;28;20293;-80
2022/07/27 00:36:05;;;;;;;4.80;3.00;;;;;;;20.13;100.00;96129.25;5041379;28;20199;-79
2022/07/27 00:38:32;;;;;;;4.95;3.10;;;;;;;20.03;100.00;96123.91;5034186;28;20265;-80
2022/07/27 00:40:59;;;;;;;5.43;3.03;;;;;;;20.02;100.00;96130.50;5040482;28;20260;-80
2022/07/27 00:43:27;;;;;;;3.70;2.90;;;;;;;20.02;100.00;96122.28;5043020;28;20202;-79
2022/07/27 00:45:54;;;;;;;6.68;3.20;;;;;;;20.03;100.00;96102.00;5037821;28;20203;-79
2022/07/27 00:48:22;;;;;;;5.82;3.28;;;;;;;20.07;100.00;96108.53;5043075;28;20559;-79
2022/07/27 00:50:49;;;;;;;5.32;2.90;;;;;;;20.00;100.00;96097.09;5058638;28;20579;-80
2022/07/27 00:53:17;;;;;;;3.45;3.15;;;;;;;20.00;100.00;96102.56;5047700;28;20278;-80
2022/07/27 00:55:45;;;;;;;4.63;2.85;;;;;;;20.03;100.00;96110.22;5037960;28;20220;-80
2022/07/27 00:58:12;;;;;;;4.45;2.90;;;;;;;20.03;100.00;96104.72;5039536;28;20210;-79
2022/07/27 01:00:40;;;;;;;3.38;3.08;;;;;;;19.95;100.00;96098.00;5032351;28;20210;-79
2022/07/27 01:03:07;;;;;;;3.85;2.75;;;;;;;19.98;100.00;96096.59;5042242;28;20203;-79
2022/07/27 01:05:37;;;;;;;3.22;2.75;;;;;;;19.99;100.00;96099.03;5055996;28;20206;-79
2022/07/27 01:08:07;;;;;;;4.05;2.78;;;;;;;20.05;100.00;96096.22;5059382;28;20230;-80
2022/07/27 01:10:34;;;;;;;4.78;3.15;;;;;;;20.09;100.00;96103.53;5038760;28;20203;-80
2022/07/27 01:13:03;;;;;;;3.25;2.95;;;;;;;20.09;100.00;96100.81;5038053;28;20207;-79
2022/07/27 01:15:30;;;;;;;4.53;3.63;;;;;;;20.14;100.00;96097.19;5047516;28;20249;-80
2022/07/27 01:17:57;;;;;;;5.82;3.35;;;;;;;20.12;100.00;96089.25;5034815;28;20198;-80
2022/07/27 01:20:24;;;;;;;4.63;2.97;;;;;;;20.07;100.00;96092.09;5034401;28;20211;-80
2022/07/27 01:22:53;;;;;;;4.97;3.38;;;;;;;20.05;100.00;96094.28;5040373;28;20214;-80
2022/07/27 01:25:20;;;;;;;3.10;2.78;;;;;;;20.01;100.00;96094.06;5038302;28;20214;-80
2022/07/27 01:27:47;;;;;;;3.45;2.58;;;;;;;20.03;100.00;96091.03;5043745;28;20227;-80
2022/07/27 01:30:27;;;;;;;4.60;2.92;;;;;;;20.04;100.00;96092.66;5030898;28;20194;-80
2022/07/27 01:33:00;;;;;;;3.30;2.97;;;;;;;20.08;100.00;96099.16;5061272;28;20198;-80
2022/07/27 01:35:27;;;;;;;5.38;3.15;;;;;;;20.00;100.00;96097.09;5036808;28;20199;-80
2022/07/27 01:37:55;;;;;;;5.20;3.17;;;;;;;19.92;100.00;96103.25;5034779;28;20199;-79
2022/07/27 01:40:22;;;;;;;4.25;3.00;;;;;;;19.88;100.00;96092.06;5035636;28;20206;-79
2022/07/27 01:42:53;;;;;;;4.88;2.83;;;;;;;19.82;100.00;96095.19;5035112;28;20246;-80
2022/07/27 01:45:20;;;;;;;6.75;3.10;;;;;;;19.70;100.00;96092.03;5038296;28;20626;-79
2022/07/27 01:47:47;;;;;;;5.43;3.35;;;;;;;19.64;100.00;96097.59;5046676;28;20218;-80
2022/07/27 01:50:14;;;;;;;3.53;3.03;;;;;;;19.58;100.00;96096.03;5039538;28;20224;-79
2022/07/27 01:52:41;;;;;;;5.70;3.30;;;;;;;19.53;100.00;96098.84;5037886;28;20207;-80
2022/07/27 01:55:11;;;;;;;4.45;3.08;;;;;;;19.59;100.00;96103.13;5042867;28;20210;-79
2022/07/27 01:57:39;;;;;;;3.92;3.20;;;;;;;19.64;100.00;96099.53;5039028;28;20241;-80
2022/07/27 02:00:09;;;;;;;4.68;2.95;;;;;;;19.64;100.00;96092.13;5042721;28;20210;-80
2022/07/27 02:02:39;;;;;;;7.47;3.05;;;;;;;19.61;100.00;96094.63;5040247;28;20201;-79
2022/07/27 02:05:10;;;;;;;4.80;3.15;;;;;;;19.58;100.00;96095.19;5057673;28;20217;-80
2022/07/27 02:07:38;;;;;;;4.00;3.08;;;;;;;19.59;100.00;96089.44;5039736;28;20238;-79
2022/07/27 02:10:06;;;;;;;7.18;3.17;;;;;;;19.60;100.00;96093.81;5038151;28;20233;-79
2022/07/27 02:12:36;;;;;;;3.92;3.42;;;;;;;19.60;100.00;96088.31;5031210;28;20213;-79
2022/07/27 02:15:06;;;;;;;4.78;3.15;;;;;;;19.59;100.00;96092.16;5057239;28;20346;-80
2022/07/27 02:17:34;;;;;;;5.07;3.20;;;;;;;19.54;100.00;96083.22;5041508;28;20209;-80
2022/07/27 02:20:18;;;;;;;3.40;3.10;;;;;;;19.50;100.00;96087.63;5062276;27;20788;-80
2022/07/27 02:22:46;;;;;;;3.85;3.22;;;;;;;19.50;100.00;96080.25;5060938;28;20205;-81
2022/07/27 02:25:15;;;;;;;4.22;3.13;;;;;;;19.51;100.00;96081.88;5061133;28;20293;-80
2022/07/27 02:27:42;;;;;;;6.32;3.58;;;;;;;19.47;100.00;96072.63;5090278;28;20230;-80
2022/07/27 02:30:11;;;;;;;3.88;3.45;;;;;;;19.49;100.00;96070.38;5057197;28;20291;-80
2022/07/27 02:32:39;;;;;;;5.93;3.40;;;;;;;19.56;100.00;96075.53;5060207;28;20208;-80
2022/07/27 02:35:07;;;;;;;6.93;3.15;;;;;;;19.64;100.00;96072.94;5060312;28;20206;-80
2022/07/27 02:37:35;;;;;;;5.28;3.35;;;;;;;19.70;100.00;96061.91;5054401;28;20202;-80
2022/07/27 02:40:02;;;;;;;4.40;3.10;;;;;;;19.78;100.00;96064.81;5054233;28;20308;-80
2022/07/27 02:42:29;;;;;;;5.78;3.08;;;;;;;19.82;100.00;96068.56;5060310;28;20210;-80
2022/07/27 02:44:56;;;;;;;7.32;3.50;;;;;;;19.76;100.00;96066.19;5057094;28;20266;-79
2022/07/27 02:47:23;;;;;;;4.47;3.00;;;;;;;19.74;100.00;96073.91;5059077;28;20224;-80
2022/07/27 02:49:50;;;;;;;3.53;3.22;;;;;;;19.73;100.00;96073.09;5089450;28;20210;-80
2022/07/27 02:52:17;;;;;;;5.32;3.35;;;;;;;19.72;100.00;96067.91;5090553;28;20201;-80
2022/07/27 02:54:45;;;;;;;4.53;3.00;;;;;;;19.73;100.00;96075.03;5078280;28;20211;-80
2022/07/27 02:57:12;;;;;;;3.35;3.00;;;;;;;19.78;100.00;96072.22;5044577;28;20226;-80
2022/07/27 02:59:39;;;;;;;7.40;3.30;;;;;;;19.76;100.00;96068.94;5034729;28;20708;-81
2022/07/27 03:02:06;;;;;;;4.07;3.50;;;;;;;19.68;100.00;96066.88;5041676;28;20206;-80
2022/07/27 03:04:34;;;;;;;4.60;2.95;;;;;;;19.67;100.00;96082.47;5039880;28;20202;-80
2022/07/27 03:07:01;;;;;;;3.70;2.60;;;;;;;19.69;100.00;96073.97;5040079;28;20214;-80
2022/07/27 03:09:28;;;;;;;4.95;2.88;;;;;;;19.69;100.00;96076.72;5034285;28;20212;-80
2022/07/27 03:11:56;;;;;;;4.28;2.80;;;;;;;19.69;100.00;96076.72;5053694;28;20213;-80
2022/07/27 03:14:23;;;;;;;5.15;3.08;;;;;;;19.64;100.00;96078.44;5032158;28;20225;-80
2022/07/27 03:16:51;;;;;;;4.05;2.90;;;;;;;19.64;100.00;96075.69;5038328;28;20220;-80
2022/07/27 03:19:18;;;;;;;6.43;3.20;;;;;;;19.63;100.00;96079.53;5037779;28;20376;-80
2022/07/27 03:21:45;;;;;;;5.32;3.40;;;;;;;19.62;100.00;96077.91;5031493;28;20206;-79
2022/07/27 03:24:12;;;;;;;6.60;3.20;;;;;;;19.63;100.00;96079.53;5040572;28;20194;-80
2022/07/27 03:26:39;;;;;;;7.10;3.38;;;;;;;19.61;100.00;96086.41;5038329;28;20289;-79
2022/07/27 03:29:08;;;;;;;4.90;2.78;;;;;;;19.58;100.00;96090.53;5038099;28;20221;-79
2022/07/27 03:31:35;;;;;;;3.95;2.90;;;;;;;19.54;100.00;96078.56;5036792;28;20213;-80
2022/07/27 03:34:02;;;;;;;4.47;2.85;;;;;;;19.56;100.00;96083.75;5022644;28;20206;-79
2022/07/27 03:36:29;;;;;;;4.47;2.58;;;;;;;19.50;100.00;96091.19;5048770;28;20332;-80
2022/07/27 03:38:56;;;;;;;5.10;2.90;;;;;;;19.51;100.00;96087.34;5028433;28;20215;-79
2022/07/27 03:41:23;;;;;;;4.20;2.90;;;;;;;19.49;100.00;96089.56;5018556;28;20208;-79
2022/07/27 03:43:50;;;;;;;4.18;3.38;;;;;;;19.53;100.00;96087.88;5052365;28;20211;-80
2022/07/27 03:46:18;;;;;;;4.60;3.00;;;;;;;19.55;100.00;96085.66;5027543;28;20385;-80
2022/07/27 03:48:45;;;;;;;3.63;2.63;;;;;;;19.56;100.00;96084.53;5025293;28;20210;-80
2022/07/27 03:51:14;;;;;;;4.35;2.55;;;;;;;19.54;100.00;96078.56;5026050;28;20202;-80
2022/07/27 03:53:41;;;;;;;3.88;2.63;;;;;;;19.51;100.00;96081.06;5028409;28;20221;-80
2022/07/27 03:56:08;;;;;;;4.60;2.60;;;;;;;19.53;100.00;96079.66;5020220;28;20215;-80
2022/07/27 03:58:36;;;;;;;3.50;2.78;;;;;;;19.50;100.00;96082.16;5022148;28;20203;-79
2022/07/27 04:01:03;;;;;;;4.87;3.20;;;;;;;19.42;100.00;96074.56;5036332;28;20238;-79
2022/07/27 04:03:31;;;;;;;3.37;2.50;;;;;;;19.49;100.00;96081.34;5024498;28;20526;-79
2022/07/27 04:05:59;;;;;;;4.05;2.67;;;;;;;19.54;100.00;96078.56;5043563;28;20213;-80
2022/07/27 04:08:26;;;;;;;3.90;2.58;;;;;;;19.61;100.00;96083.66;5024010;28;20213;-79
2022/07/27 04:10:53;;;;;;;4.60;2.60;;;;;;;19.59;100.00;96072.19;5021192;28;20218;-79
2022/07/27 04:13:20;;;;;;;4.40;2.40;;;;;;;19.59;100.00;96075.75;5022844;28;20308;-80
2022/07/27 04:15:47;;;;;;;4.60;2.58;;;;;;;19.59;100.00;96077.66;5021326;28;20207;-78
2022/07/27 04:18:14;;;;;;;6.28;2.80;;;;;;;19.54;100.00;96078.56;5024260;28;20295;-79
2022/07/27 04:20:43;;;;;;;5.05;2.80;;;;;;;19.47;100.00;96078.09;5021652;28;20269;-79
2022/07/27 04:23:10;;;;;;;4.82;2.88;;;;;;;19.45;100.00;96079.47;5059106;28;20226;-80
2022/07/27 04:25:37;;;;;;;6.00;2.95;;;;;;;19.44;100.00;96075.91;5017865;28;20211;-79
2022/07/27 04:28:05;;;;;;;4.20;2.65;;;;;;;19.45;100.00;96074.00;5014378;28;20347;-80
2022/07/27 04:30:32;;;;;;;3.20;2.37;;;;;;;19.48;100.00;96067.97;5015228;28;20216;-79
2022/07/27 04:32:59;;;;;;;5.80;2.47;;;;;;;19.39;100.00;96067.78;5043555;28;20190;-80
2022/07/27 04:35:27;;;;;;;4.68;2.30;;;;;;;19.40;100.00;96071.28;5024690;28;20226;-80
2022/07/27 04:37:55;;;;;;;4.47;2.47;;;;;;;19.36;100.00;96065.59;5017281;28;20206;-80
2022/07/27 04:40:22;;;;;;;5.43;2.80;;;;;;;19.43;100.00;96074.28;5019534;28;20286;-79
2022/07/27 04:42:49;;;;;;;4.18;2.17;;;;;;;19.39;100.00;96069.69;5022246;28;20210;-80
2022/07/27 04:45:16;;;;;;;3.67;2.45;;;;;;;19.36;100.00;96071.09;5025858;28;20230;-80
2022/07/27 04:47:43;;;;;;;5.65;2.50;;;;;;;19.44;100.00;96070.44;5022169;28;20215;-80
2022/07/27 04:50:10;;;;;;;2.20;2.00;;;;;;;19.45;100.00;96072.06;5012685;28;20286;-80
2022/07/27 04:52:37;;;;;;;3.05;2.50;;;;;;;19.49;100.00;96069.56;5018587;28;20217;-80
2022/07/27 04:55:07;;;;;;;3.30;2.30;;;;;;;19.52;100.00;96069.81;5023476;28;20215;-80
2022/07/27 04:57:34;;;;;;;5.10;2.40;;;;;;;19.53;100.00;96073.38;5025599;28;20223;-80
2022/07/27 05:00:01;;;;;;;5.75;2.55;;;;;;;19.57;100.00;96071.66;5036803;28;20284;-80
2022/07/27 05:02:30;;;;;;;4.07;2.13;;;;;;;19.61;100.00;96062.56;5020295;28;20214;-80
2022/07/27 05:04:59;;;;;;;3.55;2.33;;;;;;;19.57;100.00;96067.00;5018699;28;20320;-80
2022/07/27 05:07:26;;;;;;;4.20;2.13;;;;;;;19.44;100.00;96051.25;5021461;28;20297;-80
2022/07/27 05:09:53;;;;;;;3.30;2.15;;;;;;;19.43;100.00;96063.31;5019697;28;20273;-80
2022/07/27 05:12:22;;;;;;;3.17;2.20;;;;;;;19.47;100.00;96061.69;5023163;28;20257;-80
2022/07/27 05:14:49;;;;;;;3.60;2.20;;;;;;;19.49;100.00;96058.63;5015735;28;20203;-80
2022/07/27 05:17:16;;;;;;;3.58;2.10;;;;;;;19.59;100.00;96070.25;5017469;28;20202;-80
2022/07/27 05:19:43;;;;;;;3.88;2.33;;;;;;;19.70;100.00;96070.13;5024579;28;20241;-79
2022/07/27 05:22:10;;;;;;;2.30;2.10;;;;;;;19.65;100.00;96071.81;5037042;28;20289;-80
2022/07/27 05:24:37;;;;;;;3.17;2.00;;;;;;;19.71;100.00;96083.53;5019054;28;20223;-81
2022/07/27 05:27:05;;;;;;;2.90;2.13;;;;;;;19.76;100.00;96086.19;5026380;28;20218;-80
2022/07/27 05:29:34;;;;;;;2.85;2.33;;;;;;;19.81;100.00;96091.63;5024677;28;20210;-80
2022/07/27 05:32:00;;;;;;;4.93;2.08;;;;;;;19.86;100.00;96082.50;5020520;28;20211;-80
2022/07/27 05:34:28;;;;;;;3.13;2.22;;;;;;;19.87;100.00;96081.41;5012833;28;20210;-80
2022/07/27 05:36:55;;;;;;;2.75;2.13;;;;;;;19.85;100.00;96087.16;5019145;28;20210;-79
2022/07/27 05:39:22;;;;;;;3.40;2.83;;;;;;;19.91;100.00;96085.97;5019802;28;20242;-78
2022/07/27 05:41:49;;;;;;;5.97;2.08;;;;;;;20.00;100.00;96092.44;5014960;28;20211;-79
2022/07/27 05:44:17;;;;;;;2.38;2.08;;;;;;;20.20;100.00;96096.81;5019662;28;20262;-80
2022/07/27 05:46:45;;;;;;;2.45;2.00;;;;;;;20.17;98.84;96093.81;5022290;28;20205;-79
2022/07/27 05:49:12;;;;;;;4.50;2.13;;;;;;;20.18;95.66;96099.03;5020776;28;20226;-80
2022/07/27 05:51:39;;;;;;;3.42;2.00;;;;;;;20.24;93.38;96103.34;5014378;28;20206;-79
2022/07/27 05:54:06;;;;;;;4.25;2.20;;;;;;;20.32;92.87;96104.59;5038180;28;20294;-80
2022/07/27 05:56:34;;;;;;;2.47;1.85;;;;;;;20.31;92.43;96105.69;5018046;28;20226;-79
2022/07/27 05:59:01;;;;;;;3.28;1.85;;;;;;;20.27;92.15;96102.72;5013835;28;20337;-79
2022/07/27 06:01:28;;;;;;;2.90;2.28;;;;;;;20.28;92.49;96109.03;5023557;28;20207;-80
2022/07/27 06:03:56;;;;;;;3.10;2.00;;;;;;;20.28;91.37;96109.84;5018889;28;20199;-79
2022/07/27 06:09:08;;;;;;;3.22;2.00;;;;;;;20.21;91.31;96114.06;5021189;28;20220;-79
2022/07/27 06:11:35;;;;;;;2.53;1.70;;;;;;;20.28;90.90;96118.06;5021020;28;20206;-79
2022/07/27 06:14:02;;;;;;;2.42;1.75;;;;;;;20.25;90.94;96121.38;5020700;28;20203;-79
2022/07/27 06:16:29;;;;;;;8.73;2.38;;;;;;;20.23;91.39;96126.38;5025346;28;20195;-78
2022/07/27 06:18:58;;;;;;;5.00;2.13;;;;;;;20.24;92.99;96125.28;5055121;28;20234;-79
2022/07/27 06:21:27;;;;;;;5.30;2.45;;;;;;;20.25;93.43;96131.53;5025956;28;20242;-79
2022/07/27 06:23:54;;;;;;;6.63;1.92;;;;;;;20.31;92.84;96133.94;5021881;28;20217;-79
2022/07/27 06:26:21;;;;;;;3.60;1.90;;;;;;;20.27;91.93;96132.88;5023011;28;20207;-79
2022/07/27 06:28:48;;;;;;;4.10;1.90;;;;;;;20.26;90.87;96131.25;5021393;28;20238;-79
2022/07/27 06:31:15;;;;;;;5.20;2.08;;;;;;;20.25;90.06;96135.09;5022931;28;20203;-79
2022/07/27 06:33:42;;;;;;;5.75;2.15;;;;;;;20.27;89.04;96135.63;5023277;28;20207;-79
2022/07/27 06:36:11;;;;;;;3.13;1.98;;;;;;;20.23;89.93;96142.81;5024061;28;20210;-79
2022/07/27 06:38:38;;;;;;;2.38;1.83;;;;;;;20.23;88.84;96137.34;5024748;28;20215;-78
2022/07/27 06:41:05;;;;;;;3.95;2.30;;;;;;;20.20;89.16;96140.66;5029903;28;20240;-78
2022/07/27 06:43:33;;;;;;;5.18;2.40;;;;;;;20.26;88.63;96142.22;5035852;28;20214;-79
2022/07/27 06:46:02;;;;;;;3.20;2.10;;;;;;;20.15;89.83;96138.00;5024733;28;20229;-79
2022/07/27 06:48:29;;;;;;;3.97;1.98;;;;;;;20.17;88.87;96146.72;5046301;28;20233;-78
2022/07/27 06:50:56;;;;;;;5.25;2.17;;;;;;;20.17;89.14;96138.50;5014069;28;20203;-79
2022/07/27 06:53:24;;;;;;;3.70;2.10;;;;;;;20.13;89.50;96153.94;5024551;28;20222;-78
2022/07/27 06:55:52;;;;;;;4.60;2.40;;;;;;;20.12;88.67;96155.03;5017674;28;20281;-78
2022/07/27 06:58:19;;;;;;;2.47;2.13;;;;;;;20.08;89.11;96147.69;5047961;28;20231;-79
2022/07/27 07:00:47;;;;;;;3.78;2.10;;;;;;;20.10;89.26;96149.03;5020269;28;20229;-78
2022/07/27 07:03:13;;;;;;;4.63;1.83;;;;;;;20.15;89.22;96151.72;5026490;28;20218;-79
2022/07/27 07:05:42;;;;;;;3.90;2.25;;;;;;;20.22;89.58;96163.13;5021532;28;20276;-78
2022/07/27 07:08:10;;;;;;;5.15;2.13;;;;;;;20.19;89.65;96163.72;5042558;28;20215;-79
2022/07/27 07:10:40;;;;;;;3.67;2.25;;;;;;;20.20;90.05;96161.78;5017219;28;20211;-78
2022/07/27 07:13:08;;;;;;;5.72;2.00;;;;;;;20.22;89.57;96165.06;5026381;28;20202;-78
2022/07/27 07:15:37;;;;;;;4.90;2.00;;;;;;;20.20;89.59;96162.59;5020722;28;20213;-78
2022/07/27 07:18:05;;;;;;;3.38;1.83;;;;;;;20.19;88.65;96154.66;5023190;28;20246;-78
2022/07/27 07:20:32;;;;;;;2.92;2.00;;;;;;;20.22;88.59;96163.13;5021882;28;20488;-79
2022/07/27 07:23:00;;;;;;;7.05;1.95;;;;;;;20.22;88.03;96165.06;5045118;28;20238;-80
2022/07/27 07:25:27;;;;;;;3.67;2.03;;;;;;;20.22;87.68;96159.56;5022172;28;20740;-80
2022/07/27 07:27:56;;;;;;;2.78;1.70;;;;;;;20.21;87.96;96158.75;5028344;28;20202;-80
2022/07/27 07:30:24;;;;;;;3.92;1.73;;;;;;;20.23;88.04;96159.28;5028223;28;20269;-80
2022/07/27 07:32:51;;;;;;;4.38;2.03;;;;;;;20.24;88.33;96166.41;5027237;28;20207;-80
2022/07/27 07:35:19;;;;;;;2.72;1.98;;;;;;;20.24;88.53;96171.88;5024857;28;20214;-80
2022/07/27 07:37:46;;;;;;;2.92;1.98;;;;;;;20.21;88.53;96164.22;5013638;28;20225;-80
2022/07/27 07:40:13;;;;;;;3.38;2.08;;;;;;;20.31;88.12;96177.81;5019388;28;20222;-80
2022/07/27 07:42:51;;;;;;;2.75;1.80;;;;;;;20.34;87.88;96173.66;5059964;28;20203;-80
2022/07/27 07:45:21;;;;;;;3.30;1.85;;;;;;;20.29;89.47;96162.75;5028241;28;20232;-80
2022/07/27 07:47:48;;;;;;;4.15;1.95;;;;;;;20.35;89.03;96169.81;5021369;28;20203;-80
2022/07/27 07:50:15;;;;;;;3.45;1.60;;;;;;;20.37;88.38;96167.59;5060576;28;20558;-80
2022/07/27 07:52:42;;;;;;;3.40;2.03;;;;;;;20.34;86.25;96160.78;5027348;28;20295;-80
2022/07/27 07:55:10;;;;;;;2.42;1.90;;;;;;;20.38;86.24;96164.56;5021343;28;20215;-79
2022/07/27 07:57:37;;;;;;;3.50;2.28;;;;;;;20.43;85.92;96160.91;5029634;28;20297;-79
2022/07/27 08:00:07;;;;;;;3.17;2.03;;;;;;;20.39;86.80;96166.19;5021385;28;20227;-80
2022/07/27 08:02:50;;;;;;;2.55;2.00;;;;;;;20.43;88.19;96165.59;5023800;28;20282;-79
2022/07/27 08:05:18;;;;;;;3.10;1.70;;;;;;;20.56;87.45;96165.66;5036365;28;20210;-79
2022/07/27 08:07:46;;;;;;;1.98;1.80;;;;;;;20.58;87.14;96166.19;5058279;28;20198;-80
2022/07/27 08:10:15;;;;;;;2.65;2.00;;;;;;;20.62;87.25;96161.72;5040308;28;20236;-80
2022/07/27 08:12:46;;;;;;;4.68;1.95;;;;;;;20.67;86.36;96171.81;5025199;28;20212;-80
2022/07/27 08:15:16;;;;;;;3.58;2.00;;;;;;;20.59;85.72;96164.25;5055263;28;20212;-80
2022/07/27 08:17:43;;;;;;;2.80;1.83;;;;;;;20.62;85.62;96169.13;5017670;28;20222;-80
2022/07/27 08:20:13;;;;;;;3.58;2.28;;;;;;;20.57;86.61;96159.06;5030484;28;20252;-80
2022/07/27 08:22:41;;;;;;;6.75;2.55;;;;;;;20.62;86.77;96166.41;5021208;28;20207;-79
2022/07/27 08:25:09;;;;;;;2.70;2.35;;;;;;;20.60;87.20;96171.34;5026547;28;20218;-80
2022/07/27 08:27:37;;;;;;;2.90;1.98;;;;;;;20.61;87.49;96164.75;5030060;28;20195;-80
2022/07/27 08:30:04;;;;;;;2.85;2.00;;;;;;;20.65;87.22;96168.56;5023621;28;20306;-80
2022/07/27 08:32:31;;;;;;;3.40;1.90;;;;;;;20.69;87.64;96170.38;5050385;28;20207;-80
2022/07/27 08:34:58;;;;;;;2.45;1.88;;;;;;;20.71;87.99;96173.66;5021858;28;20210;-80
2022/07/27 08:37:27;;;;;;;3.78;2.42;;;;;;;20.72;87.47;96168.97;5022726;28;20195;-80
2022/07/27 08:39:54;;;;;;;4.70;2.08;;;;;;;20.69;86.70;96178.63;5026560;28;20206;-80
2022/07/27 08:42:23;;;;;;;5.22;2.00;;;;;;;20.71;87.90;96178.31;5026239;28;20202;-80
2022/07/27 08:44:50;;;;;;;2.88;2.13;;;;;;;20.76;87.98;96179.03;5059186;28;20211;-80
2022/07/27 08:47:19;;;;;;;3.75;2.10;;;;;;;20.77;88.11;96177.94;5024120;28;20194;-80
2022/07/27 08:49:46;;;;;;;3.03;2.00;;;;;;;20.84;87.26;96182.25;5013767;28;20249;-80
2022/07/27 08:52:14;;;;;;;2.72;2.05;;;;;;;20.86;88.53;96175.31;5014824;28;20230;-80
2022/07/27 08:54:43;;;;;;;3.45;2.08;;;;;;;20.95;87.66;96176.28;5055091;28;20307;-80
2022/07/27 08:57:10;;;;;;;3.72;1.90;;;;;;;21.08;86.41;96186.50;5018636;28;20314;-79
2022/07/27 08:59:37;;;;;;;5.65;2.05;;;;;;;21.14;83.92;96185.28;5021551;28;20203;-80
2022/07/27 09:02:09;;;;;;;3.10;1.90;;;;;;;21.30;83.52;96179.53;5026202;28;20519;-80
2022/07/27 09:04:36;;;;;;;6.80;2.15;;;;;;;21.29;83.97;96177.91;5054582;28;20217;-80
2022/07/27 09:07:03;;;;;;;2.88;1.92;;;;;;;21.35;82.61;96182.22;5021111;28;20199;-80
2022/07/27 09:09:45;;;;;;;3.97;2.00;;;;;;;21.48;82.72;96186.91;5025153;28;20482;-80
2022/07/27 09:12:13;;;;;;;2.25;2.05;;;;;;;21.50;82.08;96187.41;5022580;28;20203;-80
2022/07/27 09:14:42;;;;;;;3.30;2.13;;;;;;;21.59;82.99;96174.59;5029675;28;20208;-80
2022/07/27 09:17:27;;;;;;;2.92;1.80;;;;;;;21.76;80.55;96176.75;5024326;28;20218;-80
2022/07/27 09:19:55;;;;;;;3.22;2.00;;;;;;;21.90;81.00;96183.03;5025530;28;20273;-80
2022/07/27 09:22:41;;;;;;;4.40;2.10;;;;;;;22.06;78.01;96181.63;5016598;28;20226;-80
2022/07/27 09:25:12;;;;;;;4.32;1.83;;;;;;;22.18;76.79;96172.88;5022139;28;20215;-80
2022/07/27 09:27:40;;;;;;;2.03;1.88;;;;;;;22.31;75.24;96177.53;5039469;28;20272;-80
2022/07/27 09:30:09;;;;;;;2.95;1.90;;;;;;;22.35;73.96;96172.22;5025783;28;20305;-80
2022/07/27 09:32:36;;;;;;;2.47;2.13;;;;;;;22.46;74.42;96173.59;5023775;28;20306;-80
2022/07/27 09:35:17;;;;;;;3.58;2.25;;;;;;;22.53;74.17;96176.75;5053922;28;20199;-80
2022/07/27 09:37:44;;;;;;;3.83;1.98;;;;;;;22.71;73.12;96174.97;5023428;28;20249;-80
2022/07/27 09:40:16;;;;;;;6.07;2.17;;;;;;;22.74;72.50;96177.94;5053595;28;20198;-79
2022/07/27 09:42:44;;;;;;;2.30;1.83;;;;;;;22.78;72.51;96176.19;5036788;28;20264;-79
2022/07/27 09:45:32;;;;;;;5.28;2.30;;;;;;;22.79;73.26;96179.75;5018474;28;20217;-79
2022/07/27 09:48:10;;;;;;;2.38;2.13;;;;;;;22.77;72.08;96180.06;5023878;28;20217;-79
2022/07/27 09:50:41;;;;;;;3.88;2.00;;;;;;;22.71;73.05;96186.00;5024003;28;20221;-79
2022/07/27 09:53:17;;;;;;;4.43;2.33;;;;;;;22.62;74.28;96183.97;5020322;28;20206;-79
2022/07/27 09:55:56;;;;;;;3.05;2.03;;;;;;;22.73;73.85;96186.47;5049060;28;20277;-79
2022/07/27 09:58:39;;;;;;;4.07;2.50;;;;;;;22.85;72.34;96186.75;5012671;28;20215;-80
2022/07/27 10:01:06;;;;;;;3.28;2.20;;;;;;;22.89;72.90;96185.81;5055424;28;20234;-79
2022/07/27 10:03:33;;;;;;;4.45;2.13;;;;;;;22.99;73.83;96188.31;5035960;28;20207;-80
2022/07/27 10:06:01;;;;;;;3.65;2.25;;;;;;;23.14;72.72;96181.63;5033844;28;20265;-80
2022/07/27 10:08:28;;;;;;;2.58;2.20;;;;;;;23.27;71.48;96183.50;5017507;28;20198;-80
2022/07/27 10:10:57;;;;;;;2.30;2.10;;;;;;;23.37;70.57;96177.72;5035408;28;20217;-79
2022/07/27 10:13:24;;;;;;;3.67;2.25;;;;;;;23.53;70.55;96177.34;5014306;28;20211;-80
2022/07/27 10:15:51;;;;;;;2.95;2.22;;;;;;;23.57;71.04;96181.06;5021537;28;20207;-79
2022/07/27 10:18:27;;;;;;;3.42;2.38;;;;;;;23.47;71.75;96175.81;5021654;28;20231;-80
2022/07/27 10:20:58;;;;;;;5.18;2.20;;;;;;;23.65;71.08;96172.03;5038624;28;20222;-79
2022/07/27 10:23:29;;;;;;;3.67;2.65;;;;;;;23.95;68.47;96171.19;5021896;28;20309;-80
2022/07/27 10:26:20;;;;;;;3.55;2.70;;;;;;;24.05;68.35;96176.41;5025868;28;20213;-80
2022/07/27 10:28:52;;;;;;;3.72;2.60;;;;;;;23.88;69.19;96159.81;5020486;28;20215;-80
2022/07/27 10:31:22;;;;;;;3.80;2.47;;;;;;;23.96;69.11;96155.44;5017932;28;20228;-80
2022/07/27 10:33:51;;;;;;;5.75;2.55;;;;;;;23.88;67.62;96159.81;5026290;28;20202;-80
2022/07/27 10:36:45;;;;;;;3.90;2.35;;;;;;;24.08;67.92;96156.44;5022353;28;20231;-80
2022/07/27 10:39:26;;;;;;;2.88;2.25;;;;;;;24.24;65.58;96156.84;5023048;28;20515;-80
2022/07/27 10:42:20;;;;;;;3.70;2.20;;;;;;;24.45;66.58;96151.50;5028714;28;20226;-80
2022/07/27 10:44:53;;;;;;;5.15;2.38;;;;;;;24.61;65.71;96144.38;5020985;28;20207;-80
2022/07/27 10:47:29;;;;;;;4.28;2.33;;;;;;;24.63;66.47;96153.13;5019314;28;20511;-80
2022/07/27 10:50:22;;;;;;;5.43;2.40;;;;;;;24.66;64.96;96146.16;5019859;28;20215;-80
2022/07/27 10:52:51;;;;;;;3.67;2.28;;;;;;;24.61;66.70;96140.78;5026965;28;20203;-80
2022/07/27 10:55:49;;;;;;;3.25;2.45;;;;;;;24.56;65.20;96135.44;5028720;28;20297;-80
2022/07/27 10:58:47;;;;;;;6.32;2.42;;;;;;;24.68;65.05;96136.41;5025465;28;20238;-80
2022/07/27 11:01:20;;;;;;;3.55;2.35;;;;;;;24.95;65.00;96137.22;5012820;28;20231;-80
2022/07/27 11:03:54;;;;;;;2.58;2.38;;;;;;;25.14;64.10;96134.94;5056960;28;20209;-80
2022/07/27 11:06:28;;;;;;;5.35;2.40;;;;;;;25.35;63.43;96135.84;5022543;28;20225;-80
2022/07/27 11:08:56;;;;;;;3.72;2.33;;;;;;;25.67;61.54;96134.47;5023570;28;20234;-80
2022/07/27 11:11:24;;;;;;;2.90;2.22;;;;;;;25.83;60.57;96131.94;5025195;28;20210;-80
2022/07/27 11:13:56;;;;;;;2.78;2.42;;;;;;;25.74;60.41;96118.16;5027364;28;20210;-80
2022/07/27 11:16:23;;;;;;;4.45;2.15;;;;;;;25.79;61.26;96122.69;5025572;28;20326;-80
2022/07/27 11:18:56;;;;;;;4.00;2.45;;;;;;;25.79;59.65;96112.44;5018172;28;20235;-79
2022/07/27 11:21:25;;;;;;;3.42;2.45;;;;;;;25.88;59.26;96115.16;5024606;28;20226;-79
2022/07/27 11:23:54;;;;;;;3.92;2.70;;;;;;;26.00;60.33;96112.50;5026866;28;20226;-80
2022/07/27 11:26:22;;;;;;;3.58;2.45;;;;;;;25.67;60.52;96112.34;5043051;28;20265;-80
2022/07/27 11:28:51;;;;;;;3.85;2.33;;;;;;;25.49;61.97;96108.81;5028958;28;20219;-80
2022/07/27 11:31:20;;;;;;;3.63;2.30;;;;;;;25.56;61.95;96109.09;5043239;28;20205;-80
2022/07/27 11:33:56;;;;;;;3.75;2.22;;;;;;;25.47;60.69;96105.56;5061960;28;20286;-80
2022/07/27 11:36:35;;;;;;;3.28;2.50;;;;;;;25.29;62.46;96104.00;5025164;28;20276;-80
2022/07/27 11:39:04;;;;;;;4.53;2.40;;;;;;;25.33;63.68;96102.22;5027804;28;20260;-80
2022/07/27 11:41:32;;;;;;;3.28;2.50;;;;;;;25.42;62.69;96103.00;5023372;28;20225;-80